sensor_id;sensor_type;location;lat;lon;timestamp;pressure;altitude;pressure_sealevel;temperature;humidity
52975;BME280;38839;45.186;5.720;2023-04-23T00:01:03;98834.13;;;13.98;77.29
52975;BME280;38839;45.186;5.720;2023-04-23T00:03:30;98844.63;;;13.98;77.33
52975;BME280;38839;45.186;5.720;2023-04-23T00:05:57;98842.91;;;13.97;77.66
52975;BME280;38839;45.186;5.720;2023-04-23T00:08:23;98842.16;;;13.92;78.00
52975;BME280;38839;45.186;5.720;2023-04-23T00:10:51;98833.44;;;13.90;78.14
52975;BME280;38839;45.186;5.720;2023-04-23T00:13:16;98837.72;;;13.94;77.73
52975;BME280;38839;45.186;5.720;2023-04-23T00:15:42;98834.28;;;13.92;77.61
52975;BME280;38839;45.186;5.720;2023-04-23T00:18:07;98836.06;;;13.90;77.71
52975;BME280;38839;45.186;5.720;2023-04-23T00:20:33;98840.47;;;13.88;78.12
52975;BME280;38839;45.186;5.720;2023-04-23T00:23:00;98843.19;;;13.85;77.77
52975;BME280;38839;45.186;5.720;2023-04-23T00:25:25;98839.66;;;13.86;78.11
52975;BME280;38839;45.186;5.720;2023-04-23T00:27:50;98841.25;;;13.93;78.21
52975;BME280;38839;45.186;5.720;2023-04-23T00:30:16;98844.72;;;13.95;78.56
52975;BME280;38839;45.186;5.720;2023-04-23T00:32:43;98835.06;;;13.97;78.41
52975;BME280;38839;45.186;5.720;2023-04-23T00:35:09;98827.22;;;13.96;78.75
52975;BME280;38839;45.186;5.720;2023-04-23T00:37:34;98819.50;;;13.88;79.12
52975;BME280;38839;45.186;5.720;2023-04-23T00:40:00;98825.44;;;13.96;79.39
52975;BME280;38839;45.186;5.720;2023-04-23T00:42:27;98827.31;;;13.91;79.27
52975;BME280;38839;45.186;5.720;2023-04-23T00:44:53;98817.72;;;13.90;79.43
52975;BME280;38839;45.186;5.720;2023-04-23T00:47:21;98819.50;;;13.88;79.90
52975;BME280;38839;45.186;5.720;2023-04-23T00:49:47;98818.69;;;13.86;79.86
52975;BME280;38839;45.186;5.720;2023-04-23T00:52:15;98811.59;;;13.91;78.91
52975;BME280;38839;45.186;5.720;2023-04-23T00:54:40;98813.56;;;13.80;78.97
52975;BME280;38839;45.186;5.720;2023-04-23T00:57:05;98807.41;;;13.82;78.82
52975;BME280;38839;45.186;5.720;2023-04-23T00:59:32;98811.00;;;13.78;78.71
52975;BME280;38839;45.186;5.720;2023-04-23T01:01:58;98804.97;;;13.73;79.41
52975;BME280;38839;45.186;5.720;2023-04-23T01:04:26;98802.69;;;13.58;81.42
52975;BME280;38839;45.186;5.720;2023-04-23T01:06:52;98797.72;;;13.45;82.91
52975;BME280;38839;45.186;5.720;2023-04-23T01:09:18;98796.91;;;13.42;83.18
52975;BME280;38839;45.186;5.720;2023-04-23T01:11:43;98789.06;;;13.40;83.73
52975;BME280;38839;45.186;5.720;2023-04-23T01:14:09;98787.22;;;13.45;83.32
52975;BME280;38839;45.186;5.720;2023-04-23T01:16:36;98791.31;;;13.57;82.24
52975;BME280;38839;45.186;5.720;2023-04-23T01:19:05;98784.38;;;13.56;81.98
52975;BME280;38839;45.186;5.720;2023-04-23T01:21:31;98772.38;;;13.46;82.82
52975;BME280;38839;45.186;5.720;2023-04-23T01:23:58;98770.84;;;13.34;83.84
52975;BME280;38839;45.186;5.720;2023-04-23T01:26:23;98760.34;;;13.36;83.47
52975;BME280;38839;45.186;5.720;2023-04-23T01:28:49;98765.44;;;13.43;83.04
52975;BME280;38839;45.186;5.720;2023-04-23T01:31:15;98770.41;;;13.56;82.70
52975;BME280;38839;45.186;5.720;2023-04-23T01:33:42;98769.19;;;13.72;82.20
52975;BME280;38839;45.186;5.720;2023-04-23T01:36:08;98761.13;;;13.80;81.52
52975;BME280;38839;45.186;5.720;2023-04-23T01:38:35;98767.00;;;13.91;81.24
52975;BME280;38839;45.186;5.720;2023-04-23T01:41:02;98761.69;;;13.94;81.27
52975;BME280;38839;45.186;5.720;2023-04-23T01:43:27;98766.91;;;13.96;81.62
52975;BME280;38839;45.186;5.720;2023-04-23T01:45:53;98762.59;;;13.93;81.86
52975;BME280;38839;45.186;5.720;2023-04-23T01:48:19;98756.50;;;13.93;82.01
52975;BME280;38839;45.186;5.720;2023-04-23T01:50:44;98763.53;;;13.91;82.77
52975;BME280;38839;45.186;5.720;2023-04-23T01:53:10;98758.28;;;13.91;82.96
52975;BME280;38839;45.186;5.720;2023-04-23T01:55:37;98755.84;;;13.83;83.30
52975;BME280;38839;45.186;5.720;2023-04-23T01:58:03;98745.34;;;13.83;83.63
52975;BME280;38839;45.186;5.720;2023-04-23T02:00:29;98749.63;;;13.87;83.55
52975;BME280;38839;45.186;5.720;2023-04-23T02:02:55;98742.75;;;13.81;84.28
52975;BME280;38839;45.186;5.720;2023-04-23T02:05:20;98749.78;;;13.79;84.27
52975;BME280;38839;45.186;5.720;2023-04-23T02:07:48;98752.38;;;13.81;84.30
52975;BME280;38839;45.186;5.720;2023-04-23T02:10:14;98751.53;;;13.80;84.21
52975;BME280;38839;45.186;5.720;2023-04-23T02:12:39;98740.28;;;13.74;84.16
52975;BME280;38839;45.186;5.720;2023-04-23T02:15:06;98751.59;;;13.77;84.33
52975;BME280;38839;45.186;5.720;2023-04-23T02:17:32;98754.16;;;13.80;84.23
52975;BME280;38839;45.186;5.720;2023-04-23T02:19:58;98755.88;;;13.80;84.30
52975;BME280;38839;45.186;5.720;2023-04-23T02:22:23;98752.53;;;13.75;84.79
52975;BME280;38839;45.186;5.720;2023-04-23T02:24:51;98742.91;;;13.74;84.90
52975;BME280;38839;45.186;5.720;2023-04-23T02:27:17;98741.06;;;13.79;84.63
52975;BME280;38839;45.186;5.720;2023-04-23T02:29:43;98723.72;;;13.73;85.44
52975;BME280;38839;45.186;5.720;2023-04-23T02:32:08;98726.34;;;13.72;85.86
52975;BME280;38839;45.186;5.720;2023-04-23T02:34:34;98728.16;;;13.69;86.37
52975;BME280;38839;45.186;5.720;2023-04-23T02:36:59;98731.00;;;13.60;87.06
52975;BME280;38839;45.186;5.720;2023-04-23T02:39:25;98731.88;;;13.59;86.42
52975;BME280;38839;45.186;5.720;2023-04-23T02:41:50;98735.19;;;13.67;85.97
52975;BME280;38839;45.186;5.720;2023-04-23T02:44:15;98740.38;;;13.71;85.84
52975;BME280;38839;45.186;5.720;2023-04-23T02:46:41;98734.31;;;13.68;85.94
52975;BME280;38839;45.186;5.720;2023-04-23T02:49:06;98740.28;;;13.74;85.75
52975;BME280;38839;45.186;5.720;2023-04-23T02:51:31;98738.59;;;13.73;85.67
52975;BME280;38839;45.186;5.720;2023-04-23T02:53:57;98739.56;;;13.67;85.77
52975;BME280;38839;45.186;5.720;2023-04-23T02:56:23;98731.75;;;13.65;85.75
52975;BME280;38839;45.186;5.720;2023-04-23T02:58:50;98730.84;;;13.68;85.97
52975;BME280;38839;45.186;5.720;2023-04-23T03:01:16;98730.03;;;13.64;86.82
52975;BME280;38839;45.186;5.720;2023-04-23T03:03:42;98727.59;;;13.55;86.91
52975;BME280;38839;45.186;5.720;2023-04-23T03:06:07;98716.41;;;13.48;87.44
52975;BME280;38839;45.186;5.720;2023-04-23T03:08:33;98732.09;;;13.50;88.38
52975;BME280;38839;45.186;5.720;2023-04-23T03:10:58;98734.72;;;13.50;88.46
52975;BME280;38839;45.186;5.720;2023-04-23T03:13:25;98740.09;;;13.42;87.87
52975;BME280;38839;45.186;5.720;2023-04-23T03:15:52;98737.59;;;13.38;88.49
52975;BME280;38839;45.186;5.720;2023-04-23T03:18:18;98724.53;;;13.35;88.50
52975;BME280;38839;45.186;5.720;2023-04-23T03:20:44;98718.56;;;13.30;88.97
52975;BME280;38839;45.186;5.720;2023-04-23T03:23:09;98713.34;;;13.26;89.80
52975;BME280;38839;45.186;5.720;2023-04-23T03:25:35;98715.94;;;13.26;89.22
52975;BME280;38839;45.186;5.720;2023-04-23T03:28:00;98705.47;;;13.26;89.58
52975;BME280;38839;45.186;5.720;2023-04-23T03:30:27;98714.22;;;13.27;90.23
52975;BME280;38839;45.186;5.720;2023-04-23T03:32:56;98715.06;;;13.27;90.86
52975;BME280;38839;45.186;5.720;2023-04-23T03:35:24;98715.19;;;13.21;92.30
52975;BME280;38839;45.186;5.720;2023-04-23T03:37:50;98714.41;;;13.16;92.31
52975;BME280;38839;45.186;5.720;2023-04-23T03:40:16;98718.91;;;13.11;92.33
52975;BME280;38839;45.186;5.720;2023-04-23T03:42:42;98712.88;;;13.06;92.98
52975;BME280;38839;45.186;5.720;2023-04-23T03:45:07;98716.53;;;12.99;92.85
52975;BME280;38839;45.186;5.720;2023-04-23T03:47:33;98712.16;;;12.98;92.67
52975;BME280;38839;45.186;5.720;2023-04-23T03:49:58;98712.16;;;12.98;92.47
52975;BME280;38839;45.186;5.720;2023-04-23T03:52:24;98714.88;;;12.95;93.48
52975;BME280;38839;45.186;5.720;2023-04-23T03:54:49;98716.53;;;12.99;92.17
52975;BME280;38839;45.186;5.720;2023-04-23T03:57:15;98700.84;;;12.97;91.70
52975;BME280;38839;45.186;5.720;2023-04-23T03:59:40;98709.97;;;12.78;92.88
52975;BME280;38839;45.186;5.720;2023-04-23T04:02:06;98708.31;;;12.72;93.61
52975;BME280;38839;45.186;5.720;2023-04-23T04:04:31;98702.28;;;12.67;94.36
52975;BME280;38839;45.186;5.720;2023-04-23T04:06:58;98698.09;;;12.60;94.84
52975;BME280;38839;45.186;5.720;2023-04-23T04:09:27;98698.13;;;12.57;95.50
52975;BME280;38839;45.186;5.720;2023-04-23T04:11:54;98686.72;;;12.61;95.24
52975;BME280;38839;45.186;5.720;2023-04-23T04:14:20;98679.78;;;12.60;95.31
52975;BME280;38839;45.186;5.720;2023-04-23T04:16:45;98685.13;;;12.52;95.60
52975;BME280;38839;45.186;5.720;2023-04-23T04:19:11;98666.84;;;12.51;96.86
52975;BME280;38839;45.186;5.720;2023-04-23T04:21:36;98676.44;;;12.52;96.97
52975;BME280;38839;45.186;5.720;2023-04-23T04:24:02;98672.75;;;12.62;96.15
52975;BME280;38839;45.186;5.720;2023-04-23T04:26:29;98670.69;;;12.78;95.07
52975;BME280;38839;45.186;5.720;2023-04-23T04:28:59;98666.31;;;12.80;94.41
52975;BME280;38839;45.186;5.720;2023-04-23T04:31:26;98665.28;;;12.85;93.64
52975;BME280;38839;45.186;5.720;2023-04-23T04:33:53;98662.66;;;12.87;93.99
52975;BME280;38839;45.186;5.720;2023-04-23T04:36:20;98667.75;;;12.93;93.65
52975;BME280;38839;45.186;5.720;2023-04-23T04:38:45;98672.16;;;12.93;93.91
52975;BME280;38839;45.186;5.720;2023-04-23T04:41:10;98672.16;;;12.93;93.53
52975;BME280;38839;45.186;5.720;2023-04-23T04:43:37;98660.03;;;12.87;94.31
52975;BME280;38839;45.186;5.720;2023-04-23T04:46:03;98661.72;;;12.89;94.00
52975;BME280;38839;45.186;5.720;2023-04-23T04:48:29;98663.59;;;12.83;94.70
52975;BME280;38839;45.186;5.720;2023-04-23T04:50:54;98655.72;;;12.86;94.88
52975;BME280;38839;45.186;5.720;2023-04-23T04:53:20;98660.19;;;12.79;95.70
52975;BME280;38839;45.186;5.720;2023-04-23T04:55:45;98651.38;;;12.83;94.71
52975;BME280;38839;45.186;5.720;2023-04-23T04:58:11;98650.47;;;12.86;94.99
52975;BME280;38839;45.186;5.720;2023-04-23T05:00:36;98646.00;;;12.89;94.09
52975;BME280;38839;45.186;5.720;2023-04-23T05:03:02;98648.63;;;12.89;94.21
52975;BME280;38839;45.186;5.720;2023-04-23T05:05:27;98645.25;;;12.86;94.45
52975;BME280;38839;45.186;5.720;2023-04-23T05:07:53;98638.94;;;12.95;94.40
52975;BME280;38839;45.186;5.720;2023-04-23T05:10:19;98642.31;;;13.00;93.83
52975;BME280;38839;45.186;5.720;2023-04-23T05:12:45;98649.16;;;13.07;93.61
52975;BME280;38839;45.186;5.720;2023-04-23T05:15:11;98660.44;;;13.11;93.42
52975;BME280;38839;45.186;5.720;2023-04-23T05:17:40;98654.19;;;13.16;92.62
52975;BME280;38839;45.186;5.720;2023-04-23T05:20:07;98658.28;;;13.28;92.41
52975;BME280;38839;45.186;5.720;2023-04-23T05:22:39;98656.53;;;13.28;91.75
52975;BME280;38839;45.186;5.720;2023-04-23T05:25:06;98650.44;;;13.30;91.77
52975;BME280;38839;45.186;5.720;2023-04-23T05:27:32;98656.63;;;13.25;91.55
52975;BME280;38839;45.186;5.720;2023-04-23T05:29:57;98667.34;;;13.15;92.38
52975;BME280;38839;45.186;5.720;2023-04-23T05:32:23;98668.19;;;13.15;92.61
52975;BME280;38839;45.186;5.720;2023-04-23T05:34:49;98667.13;;;13.24;92.44
52975;BME280;38839;45.186;5.720;2023-04-23T05:37:15;98663.53;;;13.30;91.73
52975;BME280;38839;45.186;5.720;2023-04-23T05:39:40;98669.38;;;13.41;91.34
52975;BME280;38839;45.186;5.720;2023-04-23T05:42:05;98668.75;;;13.31;91.11
52975;BME280;38839;45.186;5.720;2023-04-23T05:44:31;98663.66;;;13.22;91.35
52975;BME280;38839;45.186;5.720;2023-04-23T05:46:56;98651.50;;;13.19;91.07
52975;BME280;38839;45.186;5.720;2023-04-23T05:49:21;98655.22;;;13.09;91.50
52975;BME280;38839;45.186;5.720;2023-04-23T05:51:47;98673.16;;;13.27;91.11
52975;BME280;38839;45.186;5.720;2023-04-23T05:54:12;98671.50;;;13.23;90.86
52975;BME280;38839;45.186;5.720;2023-04-23T05:56:38;98666.16;;;13.30;90.67
52975;BME280;38839;45.186;5.720;2023-04-23T05:59:03;98659.16;;;13.28;90.12
52975;BME280;38839;45.186;5.720;2023-04-23T06:01:28;98649.63;;;13.24;90.31
52975;BME280;38839;45.186;5.720;2023-04-23T06:03:54;98653.91;;;13.28;90.14
52975;BME280;38839;45.186;5.720;2023-04-23T06:06:19;98645.94;;;13.35;89.21
52975;BME280;38839;45.186;5.720;2023-04-23T06:08:45;98648.16;;;13.53;88.40
52975;BME280;38839;45.186;5.720;2023-04-23T06:11:10;98644.66;;;13.90;86.80
52975;BME280;38839;45.186;5.720;2023-04-23T06:13:35;98644.78;;;14.20;85.54
52975;BME280;38839;45.186;5.720;2023-04-23T06:16:06;98652.34;;;14.65;83.69
52975;BME280;38839;45.186;5.720;2023-04-23T06:18:32;98656.63;;;14.99;81.48
52975;BME280;38839;45.186;5.720;2023-04-23T06:20:57;98653.09;;;15.29;80.09
52975;BME280;38839;45.186;5.720;2023-04-23T06:23:25;98649.03;;;15.49;79.75
52975;BME280;38839;45.186;5.720;2023-04-23T06:25:51;98647.50;;;15.68;78.85
52975;BME280;38839;45.186;5.720;2023-04-23T06:28:16;98650.59;;;15.55;78.55
52975;BME280;38839;45.186;5.720;2023-04-23T06:30:41;98652.88;;;15.37;79.24
52975;BME280;38839;45.186;5.720;2023-04-23T06:33:07;98651.22;;;15.35;79.67
52975;BME280;38839;45.186;5.720;2023-04-23T06:35:33;98656.81;;;15.24;79.64
52975;BME280;38839;45.186;5.720;2023-04-23T06:37:58;98650.09;;;15.14;80.25
52975;BME280;38839;45.186;5.720;2023-04-23T06:40:24;98647.69;;;15.06;80.21
52975;BME280;38839;45.186;5.720;2023-04-23T06:42:49;98646.66;;;15.12;80.20
52975;BME280;38839;45.186;5.720;2023-04-23T06:45:15;98651.91;;;15.12;80.36
52975;BME280;38839;45.186;5.720;2023-04-23T06:47:40;98658.88;;;15.42;79.18
52975;BME280;38839;45.186;5.720;2023-04-23T06:50:06;98662.16;;;15.49;78.54
52975;BME280;38839;45.186;5.720;2023-04-23T06:52:32;98660.16;;;15.57;78.29
52975;BME280;38839;45.186;5.720;2023-04-23T06:54:58;98651.09;;;15.66;77.65
52975;BME280;38839;45.186;5.720;2023-04-23T06:57:23;98655.16;;;16.04;76.15
52975;BME280;38839;45.186;5.720;2023-04-23T06:59:49;98654.00;;;16.38;74.71
52975;BME280;38839;45.186;5.720;2023-04-23T07:02:15;98659.06;;;16.69;73.36
52975;BME280;38839;45.186;5.720;2023-04-23T07:04:41;98660.72;;;16.72;72.52
52975;BME280;38839;45.186;5.720;2023-04-23T07:07:06;98647.50;;;16.48;73.08
52975;BME280;38839;45.186;5.720;2023-04-23T07:09:31;98656.56;;;16.15;73.64
52975;BME280;38839;45.186;5.720;2023-04-23T07:11:57;98666.38;;;15.83;74.48
52975;BME280;38839;45.186;5.720;2023-04-23T07:14:22;98662.63;;;15.62;74.98
52975;BME280;38839;45.186;5.720;2023-04-23T07:16:47;98667.22;;;15.55;75.29
52975;BME280;38839;45.186;5.720;2023-04-23T07:19:13;98663.59;;;15.59;74.73
52975;BME280;38839;45.186;5.720;2023-04-23T07:21:38;98656.47;;;15.63;73.75
52975;BME280;38839;45.186;5.720;2023-04-23T07:24:04;98649.16;;;15.73;73.21
52975;BME280;38839;45.186;5.720;2023-04-23T07:26:33;98661.13;;;15.83;72.85
52975;BME280;38839;45.186;5.720;2023-04-23T07:28:59;98660.84;;;15.92;72.23
52975;BME280;38839;45.186;5.720;2023-04-23T07:31:25;98664.66;;;15.82;71.89
52975;BME280;38839;45.186;5.720;2023-04-23T07:33:51;98660.22;;;15.84;71.69
52975;BME280;38839;45.186;5.720;2023-04-23T07:36:16;98647.53;;;16.22;70.89
52975;BME280;38839;45.186;5.720;2023-04-23T07:38:42;98642.09;;;16.53;69.71
52975;BME280;38839;45.186;5.720;2023-04-23T07:41:07;98640.78;;;16.90;68.64
52975;BME280;38839;45.186;5.720;2023-04-23T07:43:32;98631.41;;;17.06;68.01
52975;BME280;38839;45.186;5.720;2023-04-23T07:45:58;98636.41;;;17.58;66.41
52975;BME280;38839;45.186;5.720;2023-04-23T07:48:23;98638.84;;;17.86;65.27
52975;BME280;38839;45.186;5.720;2023-04-23T07:50:49;98627.84;;;18.18;64.56
52975;BME280;38839;45.186;5.720;2023-04-23T07:53:15;98622.53;;;18.59;63.13
52975;BME280;38839;45.186;5.720;2023-04-23T07:55:40;98617.34;;;18.97;61.50
52975;BME280;38839;45.186;5.720;2023-04-23T07:58:06;98619.72;;;19.58;59.89
52975;BME280;38839;45.186;5.720;2023-04-23T08:00:31;98600.44;;;19.75;59.15
52975;BME280;38839;45.186;5.720;2023-04-23T08:02:57;98602.47;;;19.68;58.79
52975;BME280;38839;45.186;5.720;2023-04-23T08:05:23;98597.91;;;19.17;59.56
52975;BME280;38839;45.186;5.720;2023-04-23T08:07:48;98601.69;;;19.11;59.67
52975;BME280;38839;45.186;5.720;2023-04-23T08:10:13;98595.63;;;18.90;60.11
52975;BME280;38839;45.186;5.720;2023-04-23T08:12:39;98601.88;;;18.68;60.41
52975;BME280;38839;45.186;5.720;2023-04-23T08:15:05;98596.13;;;18.59;60.82
52975;BME280;38839;45.186;5.720;2023-04-23T08:17:31;98602.47;;;19.13;59.00
52975;BME280;38839;45.186;5.720;2023-04-23T08:19:56;98597.75;;;19.39;58.31
52975;BME280;38839;45.186;5.720;2023-04-23T08:22:21;98588.47;;;19.66;57.17
52975;BME280;38839;45.186;5.720;2023-04-23T08:24:47;98588.06;;;19.76;56.90
52975;BME280;38839;45.186;5.720;2023-04-23T08:27:13;98586.34;;;19.92;56.01
52975;BME280;38839;45.186;5.720;2023-04-23T08:29:38;98590.03;;;19.89;55.59
52975;BME280;38839;45.186;5.720;2023-04-23T08:32:04;98588.06;;;19.76;56.32
52975;BME280;38839;45.186;5.720;2023-04-23T08:34:29;98593.97;;;19.81;56.06
52975;BME280;38839;45.186;5.720;2023-04-23T08:36:55;98594.53;;;19.68;56.24
52975;BME280;38839;45.186;5.720;2023-04-23T08:39:20;98594.91;;;19.97;55.91
52975;BME280;38839;45.186;5.720;2023-04-23T08:41:53;98599.28;;;20.33;54.07
52975;BME280;38839;45.186;5.720;2023-04-23T08:44:21;98599.56;;;20.09;54.88
52975;BME280;38839;45.186;5.720;2023-04-23T08:46:47;98586.50;;;20.24;54.42
52975;BME280;38839;45.186;5.720;2023-04-23T08:49:14;98582.09;;;20.40;54.15
52975;BME280;38839;45.186;5.720;2023-04-23T08:51:53;98581.88;;;20.62;53.53
52975;BME280;38839;45.186;5.720;2023-04-23T08:54:26;98569.81;;;20.39;53.02
52975;BME280;38839;45.186;5.720;2023-04-23T08:56:56;98570.47;;;19.92;54.12
52975;BME280;38839;45.186;5.720;2023-04-23T08:59:22;98568.06;;;19.68;53.74
52975;BME280;38839;45.186;5.720;2023-04-23T09:01:50;98569.16;;;19.47;54.21
52975;BME280;38839;45.186;5.720;2023-04-23T09:04:16;98571.44;;;19.36;54.49
52975;BME280;38839;45.186;5.720;2023-04-23T09:06:44;98564.44;;;19.35;54.35
52975;BME280;38839;45.186;5.720;2023-04-23T09:09:10;98567.13;;;19.52;53.78
52975;BME280;38839;45.186;5.720;2023-04-23T09:11:36;98564.66;;;19.66;53.84
52975;BME280;38839;45.186;5.720;2023-04-23T09:14:03;98549.91;;;19.80;53.48
52975;BME280;38839;45.186;5.720;2023-04-23T09:16:28;98544.66;;;20.30;52.47
52975;BME280;38839;45.186;5.720;2023-04-23T09:18:54;98545.19;;;20.37;52.59
52975;BME280;38839;45.186;5.720;2023-04-23T09:21:20;98544.53;;;20.16;52.57
52975;BME280;38839;45.186;5.720;2023-04-23T09:23:49;98537.75;;;19.93;53.30
52975;BME280;38839;45.186;5.720;2023-04-23T09:26:18;98530.06;;;19.88;53.55
52975;BME280;38839;45.186;5.720;2023-04-23T09:28:48;98539.56;;;19.93;53.56
52975;BME280;38839;45.186;5.720;2023-04-23T09:31:14;98532.84;;;20.20;52.41
52975;BME280;38839;45.186;5.720;2023-04-23T09:33:39;98527.94;;;19.95;52.98
52975;BME280;38839;45.186;5.720;2023-04-23T09:36:09;98528.19;;;20.08;52.44
52975;BME280;38839;45.186;5.720;2023-04-23T09:38:35;98528.34;;;19.87;53.10
52975;BME280;38839;45.186;5.720;2023-04-23T09:41:24;98524.81;;;19.87;52.68
52975;BME280;38839;45.186;5.720;2023-04-23T09:43:55;98523.88;;;20.05;52.15
52975;BME280;38839;45.186;5.720;2023-04-23T09:46:40;98521.53;;;20.17;51.00
52975;BME280;38839;45.186;5.720;2023-04-23T09:49:07;98511.41;;;20.25;50.73
52975;BME280;38839;45.186;5.720;2023-04-23T09:51:36;98515.34;;;20.00;50.46
52975;BME280;38839;45.186;5.720;2023-04-23T09:54:10;98515.47;;;19.62;50.62
52975;BME280;38839;45.186;5.720;2023-04-23T09:56:36;98505.44;;;19.69;50.19
52975;BME280;38839;45.186;5.720;2023-04-23T09:59:01;98499.59;;;20.15;49.51
52975;BME280;38839;45.186;5.720;2023-04-23T10:01:28;98501.59;;;20.27;48.98
52975;BME280;38839;45.186;5.720;2023-04-23T10:03:53;98494.31;;;19.97;49.03
52975;BME280;38839;45.186;5.720;2023-04-23T10:06:26;98495.06;;;19.99;48.77
52975;BME280;38839;45.186;5.720;2023-04-23T10:08:54;98475.63;;;20.00;48.84
52975;BME280;38839;45.186;5.720;2023-04-23T10:11:22;98475.25;;;19.90;49.07
52975;BME280;38839;45.186;5.720;2023-04-23T10:13:48;98483.72;;;19.97;49.01
52975;BME280;38839;45.186;5.720;2023-04-23T10:16:13;98478.72;;;19.91;49.21
52975;BME280;38839;45.186;5.720;2023-04-23T10:18:39;98472.97;;;20.00;48.69
52975;BME280;38839;45.186;5.720;2023-04-23T10:21:05;98474.03;;;20.14;48.72
52975;BME280;38839;45.186;5.720;2023-04-23T10:23:32;98465.63;;;20.05;48.69
52975;BME280;38839;45.186;5.720;2023-04-23T10:25:59;98472.59;;;20.24;48.42
52975;BME280;38839;45.186;5.720;2023-04-23T10:28:25;98476.13;;;20.24;48.54
52975;BME280;38839;45.186;5.720;2023-04-23T10:30:56;98470.47;;;20.15;49.15
52975;BME280;38839;45.186;5.720;2023-04-23T10:33:23;98466.09;;;20.14;48.67
52975;BME280;38839;45.186;5.720;2023-04-23T10:35:51;98469.34;;;20.19;48.88
52975;BME280;38839;45.186;5.720;2023-04-23T10:38:19;98461.69;;;20.30;48.79
52975;BME280;38839;45.186;5.720;2023-04-23T10:40:48;98456.22;;;20.33;48.49
52975;BME280;38839;45.186;5.720;2023-04-23T10:43:15;98460.75;;;20.31;48.64
52975;BME280;38839;45.186;5.720;2023-04-23T10:45:42;98452.38;;;20.23;48.50
52975;BME280;38839;45.186;5.720;2023-04-23T10:48:07;98453.88;;;20.11;48.12
52975;BME280;38839;45.186;5.720;2023-04-23T10:50:36;98453.13;;;20.25;47.96
52975;BME280;38839;45.186;5.720;2023-04-23T10:53:02;98454.72;;;20.12;48.28
52975;BME280;38839;45.186;5.720;2023-04-23T10:55:29;98452.88;;;20.29;48.31
52975;BME280;38839;45.186;5.720;2023-04-23T11:03:35;98448.72;;;20.41;47.57
52975;BME280;38839;45.186;5.720;2023-04-23T11:06:07;98443.81;;;20.34;47.73
52975;BME280;38839;45.186;5.720;2023-04-23T11:08:34;98437.00;;;20.45;47.51
52975;BME280;38839;45.186;5.720;2023-04-23T11:11:02;98437.84;;;20.46;47.66
52975;BME280;38839;45.186;5.720;2023-04-23T11:13:30;98423.16;;;20.40;47.84
52975;BME280;38839;45.186;5.720;2023-04-23T11:16:17;98433.66;;;20.59;47.29
52975;BME280;38839;45.186;5.720;2023-04-23T11:19:08;98437.06;;;20.61;47.38
52975;BME280;38839;45.186;5.720;2023-04-23T11:24:23;98421.44;;;20.39;47.66
52975;BME280;38839;45.186;5.720;2023-04-23T11:26:52;98419.50;;;20.43;47.87
52975;BME280;38839;45.186;5.720;2023-04-23T11:29:21;98422.00;;;20.62;47.29
52975;BME280;38839;45.186;5.720;2023-04-23T11:31:48;98415.75;;;20.63;47.29
52975;BME280;38839;45.186;5.720;2023-04-23T11:34:13;98405.69;;;20.69;47.15
52975;BME280;38839;45.186;5.720;2023-04-23T11:36:39;98411.47;;;20.76;46.92
52975;BME280;38839;45.186;5.720;2023-04-23T11:39:04;98410.03;;;20.70;47.30
52975;BME280;38839;45.186;5.720;2023-04-23T11:41:30;98411.28;;;20.79;47.06
52975;BME280;38839;45.186;5.720;2023-04-23T11:43:56;98412.91;;;20.98;46.86
52975;BME280;38839;45.186;5.720;2023-04-23T11:46:23;98414.63;;;20.99;47.15
52975;BME280;38839;45.186;5.720;2023-04-23T11:48:48;98411.22;;;20.81;47.50
52975;BME280;38839;45.186;5.720;2023-04-23T11:51:14;98414.81;;;20.64;47.63
52975;BME280;38839;45.186;5.720;2023-04-23T11:53:46;98413.28;;;20.60;47.72
52975;BME280;38839;45.186;5.720;2023-04-23T11:56:15;98403.19;;;20.66;47.97
52975;BME280;38839;45.186;5.720;2023-04-23T11:58:40;98410.28;;;20.66;47.40
52975;BME280;38839;45.186;5.720;2023-04-23T12:01:06;98402.41;;;20.64;47.80
52975;BME280;38839;45.186;5.720;2023-04-23T12:03:32;98398.19;;;20.44;48.10
52975;BME280;38839;45.186;5.720;2023-04-23T12:05:57;98397.34;;;20.44;48.33
52975;BME280;38839;45.186;5.720;2023-04-23T12:08:23;98389.47;;;20.42;48.05
52975;BME280;38839;45.186;5.720;2023-04-23T12:10:53;98391.34;;;20.40;48.09
52975;BME280;38839;45.186;5.720;2023-04-23T12:13:24;98384.44;;;20.54;47.70
52975;BME280;38839;45.186;5.720;2023-04-23T12:15:56;98375.03;;;20.32;47.59
52975;BME280;38839;45.186;5.720;2023-04-23T12:18:52;98372.06;;;20.22;47.76
52975;BME280;38839;45.186;5.720;2023-04-23T12:21:17;98362.81;;;20.45;47.35
52975;BME280;38839;45.186;5.720;2023-04-23T12:23:43;98375.50;;;20.72;46.80
52975;BME280;38839;45.186;5.720;2023-04-23T12:26:15;98375.84;;;20.66;47.03
52975;BME280;38839;45.186;5.720;2023-04-23T12:28:49;98371.97;;;20.56;47.25
52975;BME280;38839;45.186;5.720;2023-04-23T12:31:22;98365.06;;;20.37;47.85
52975;BME280;38839;45.186;5.720;2023-04-23T12:33:55;98367.88;;;20.66;47.67
52975;BME280;38839;45.186;5.720;2023-04-23T12:36:26;98363.22;;;20.85;47.48
52975;BME280;38839;45.186;5.720;2023-04-23T12:38:52;98370.38;;;20.99;47.32
52975;BME280;38839;45.186;5.720;2023-04-23T12:41:17;98366.41;;;20.76;47.94
52975;BME280;38839;45.186;5.720;2023-04-23T12:43:43;98347.66;;;20.79;47.86
52975;BME280;38839;45.186;5.720;2023-04-23T12:46:13;98347.50;;;20.82;47.70
52975;BME280;38839;45.186;5.720;2023-04-23T12:48:38;98341.94;;;20.87;47.48
52975;BME280;38839;45.186;5.720;2023-04-23T12:51:03;98350.22;;;20.97;47.26
52975;BME280;38839;45.186;5.720;2023-04-23T12:53:31;98346.38;;;20.86;47.55
52975;BME280;38839;45.186;5.720;2023-04-23T12:55:56;98345.72;;;20.67;47.92
52975;BME280;38839;45.186;5.720;2023-04-23T12:58:22;98338.03;;;20.46;48.08
52975;BME280;38839;45.186;5.720;2023-04-23T13:00:47;98336.84;;;20.36;48.33
52975;BME280;38839;45.186;5.720;2023-04-23T13:03:12;98325.16;;;20.24;48.69
52975;BME280;38839;45.186;5.720;2023-04-23T13:05:40;98330.34;;;20.26;48.23